Time;durP1;ratioP1;P1;durP2;ratioP2;P2;SDS_P1;SDS_P2;PMS_P1;PMS_P2;Temp;Humidity;BMP_temperature;BMP_pressure;BME280_temperature;BME280_humidity;BME280_pressure;Samples;Min_cycle;Max_cycle;Signal;HPM_P1;HPM_P2
2022/12/30 00:01:50;;;;;;;4.03;0.55;;;8.50;99.90;;;;;;5068795;28;20391;-51
2022/12/30 00:04:16;;;;;;;3.90;0.30;;;8.50;1.00;;;;;;5068986;28;20441;-56
2022/12/30 00:06:41;;;;;;;3.50;0.30;;;8.40;99.90;;;;;;5069860;28;20876;-51
2022/12/30 00:09:08;;;;;;;3.80;0.50;;;8.30;99.90;;;;;;5069133;28;20522;-51
2022/12/30 00:11:34;;;;;;;3.83;0.40;;;8.10;93.00;;;;;;5068338;28;20395;-52
2022/12/30 00:33:46;;;;;;;5.32;0.50;;;8.20;99.90;;;;;;5085351;28;20392;-50
2022/12/30 00:36:11;;;;;;;4.70;0.30;;;8.20;99.90;;;;;;5092787;28;20909;-51
2022/12/30 00:38:37;;;;;;;3.80;0.40;;;8.20;1.00;;;;;;5091557;28;20406;-50
2022/12/30 00:43:47;;;;;;;5.30;0.50;;;8.20;1.00;;;;;;5092250;28;20827;-50
2022/12/30 00:46:13;;;;;;;4.10;0.50;;;9.00;1.00;;;;;;5092515;28;20433;-50
2022/12/30 00:56:51;;;;;;;4.90;0.60;;;8.00;1.00;;;;;;5084583;28;20419;-50
2022/12/30 00:59:17;;;;;;;4.77;0.60;;;8.00;1.00;;;;;;5080039;28;20438;-55
2022/12/30 01:01:42;;;;;;;3.58;0.40;;;8.40;1.00;;;;;;5083917;28;20865;-50
2022/12/30 01:04:08;;;;;;;4.60;0.50;;;8.00;40.10;;;;;;5068791;28;20443;-50
2022/12/30 01:06:36;;;;;;;4.30;0.50;;;9.00;47.90;;;;;;5070617;28;20902;-50
2022/12/30 01:09:02;;;;;;;4.18;0.70;;;8.10;1.00;;;;;;5075038;28;20382;-50
2022/12/30 01:11:27;;;;;;;4.18;0.47;;;8.10;1.00;;;;;;5083722;28;20481;-50
2022/12/30 01:13:53;;;;;;;3.97;0.53;;;8.00;1.00;;;;;;5075432;28;20449;-50
2022/12/30 01:16:19;;;;;;;4.70;0.30;;;8.00;1.00;;;;;;5079761;28;20382;-56
2022/12/30 01:18:44;;;;;;;4.87;0.50;;;8.40;1.00;;;;;;5075195;28;20388;-50
2022/12/30 01:21:10;;;;;;;4.22;0.60;;;8.10;1.00;;;;;;5071608;28;20945;-50
2022/12/30 01:23:36;;;;;;;4.97;0.77;;;8.40;1.00;;;;;;5071357;28;20752;-50
2022/12/30 01:26:05;;;;;;;4.03;0.50;;;8.00;1.00;;;;;;5071829;28;20845;-50
2022/12/30 01:28:34;;;;;;;3.80;0.50;;;8.10;1.00;;;;;;5069445;28;20392;-50
2022/12/30 01:30:59;;;;;;;4.10;0.57;;;8.20;1.00;;;;;;5071413;28;20879;-50
2022/12/30 01:33:26;;;;;;;4.57;0.50;;;8.00;1.00;;;;;;5070544;28;20372;-50
2022/12/30 01:35:51;;;;;;;4.40;0.52;;;8.00;1.00;;;;;;5053034;28;20772;-51
2022/12/30 01:38:17;;;;;;;4.33;0.40;;;8.00;1.00;;;;;;5070674;28;20380;-57
2022/12/30 01:40:43;;;;;;;6.35;0.70;;;8.10;1.00;;;;;;5070257;28;20416;-51
2022/12/30 01:43:14;;;;;;;4.20;0.50;;;8.00;1.00;;;;;;5071253;28;20726;-51
2022/12/30 01:45:51;;;;;;;5.00;0.70;;;8.00;1.00;;;;;;5070275;28;20392;-51
2022/12/30 01:48:32;;;;;;;3.90;0.50;;;7.80;1.00;;;;;;5071153;28;20372;-56
2022/12/30 01:51:06;;;;;;;3.80;0.50;;;7.90;97.60;;;;;;5056736;28;20401;-51
2022/12/30 01:53:39;;;;;;;4.80;0.60;;;7.80;1.00;;;;;;5070088;28;20473;-51
2022/12/30 01:56:12;;;;;;;4.40;0.57;;;7.80;1.00;;;;;;5070776;28;20415;-51
2022/12/30 01:58:47;;;;;;;4.28;0.70;;;7.60;1.00;;;;;;5069817;28;20633;-51
2022/12/30 02:01:13;;;;;;;4.80;0.88;;;7.50;58.80;;;;;;5070340;28;20392;-54
2022/12/30 02:03:45;;;;;;;4.40;0.80;;;7.40;99.90;;;;;;5069736;28;20368;-52
2022/12/30 02:06:16;;;;;;;4.70;0.60;;;7.30;99.90;;;;;;5070176;28;20753;-51
2022/12/30 02:08:42;;;;;;;4.07;0.60;;;7.70;99.90;;;;;;5070067;28;20390;-51
2022/12/30 02:11:08;;;;;;;5.93;0.77;;;7.10;99.90;;;;;;5070431;28;20419;-51
2022/12/30 02:13:45;;;;;;;4.93;0.85;;;7.10;99.90;;;;;;5069627;28;20733;-53
2022/12/30 02:16:22;;;;;;;4.50;0.60;;;7.00;99.90;;;;;;5070256;28;20402;-51
2022/12/30 02:19:30;;;;;;;5.53;0.70;;;7.00;99.90;;;;;;5070518;28;20372;-51
2022/12/30 02:22:15;;;;;;;4.30;0.50;;;7.00;99.90;;;;;;5049721;28;20752;-51
2022/12/30 02:25:19;;;;;;;4.55;0.70;;;6.80;99.90;;;;;;5010700;28;20412;-51
2022/12/30 02:28:17;;;;;;;4.00;0.57;;;6.70;99.90;;;;;;5070551;28;20372;-51
2022/12/30 02:31:10;;;;;;;4.10;0.50;;;6.70;99.90;;;;;;5069482;28;20384;-51
2022/12/30 02:34:02;;;;;;;4.20;0.60;;;6.70;1.00;;;;;;5069265;28;20430;-51
2022/12/30 02:36:36;;;;;;;3.75;0.57;;;6.60;99.90;;;;;;5069897;28;20412;-51
2022/12/30 02:39:19;;;;;;;5.50;1.10;;;6.50;99.90;;;;;;5069466;28;20414;-51
2022/12/30 02:45:22;;;;;;;4.28;0.55;;;6.50;99.90;;;;;;5069118;28;20398;-51
2022/12/30 02:47:53;;;;;;;4.07;0.70;;;6.40;99.90;;;;;;5007454;28;20404;-51
2022/12/30 02:53:16;;;;;;;4.53;0.70;;;6.40;1.00;;;;;;5069535;28;20880;-51
2022/12/30 02:55:51;;;;;;;4.90;0.80;;;7.50;1.00;;;;;;5069057;28;20430;-52
2022/12/30 02:58:16;;;;;;;4.60;0.90;;;6.40;1.00;;;;;;5069791;28;20384;-53
2022/12/30 03:03:57;;;;;;;4.00;0.60;;;6.30;1.00;;;;;;5068232;28;20892;-51
2022/12/30 03:06:41;;;;;;;4.10;0.70;;;6.30;1.00;;;;;;5068928;28;20483;-51
2022/12/30 03:09:39;;;;;;;4.30;0.80;;;6.20;99.90;;;;;;5069509;28;20745;-51
2022/12/30 03:12:54;;;;;;;4.20;1.00;;;7.50;1.00;;;;;;5049718;28;20476;-51
2022/12/30 03:15:26;;;;;;;4.40;0.90;;;6.10;1.00;;;;;;5003368;28;20407;-56
2022/12/30 03:17:52;;;;;;;5.30;0.95;;;6.10;1.00;;;;;;5069884;28;20372;-51
2022/12/30 03:20:22;;;;;;;4.03;0.70;;;6.10;1.00;;;;;;5069185;28;20824;-56
2022/12/30 03:28:25;;;;;;;4.45;0.70;;;6.80;1.00;;;;;;5069103;28;20796;-56
2022/12/30 03:30:58;;;;;;;4.38;1.00;;;7.70;1.00;;;;;;5069530;28;20803;-51
2022/12/30 03:33:27;;;;;;;4.30;0.70;;;7.30;1.00;;;;;;5068924;28;20467;-51
2022/12/30 03:35:58;;;;;;;4.20;0.80;;;7.00;1.00;;;;;;5069150;28;20418;-53
2022/12/30 03:38:30;;;;;;;6.50;0.90;;;6.60;1.00;;;;;;5062846;28;20886;-52
2022/12/30 03:40:58;;;;;;;3.90;0.70;;;5.60;1.00;;;;;;5061404;28;20414;-52
2022/12/30 03:43:26;;;;;;;5.40;1.08;;;5.60;1.00;;;;;;5068756;28;20419;-52
2022/12/30 03:45:51;;;;;;;4.50;0.82;;;5.60;1.00;;;;;;5069168;28;20387;-52
2022/12/30 03:48:17;;;;;;;3.70;0.70;;;7.00;1.00;;;;;;5069635;28;20384;-54
2022/12/30 03:50:44;;;;;;;5.23;1.00;;;6.80;1.00;;;;;;5068643;28;20392;-52
2022/12/30 03:53:10;;;;;;;4.07;0.77;;;7.40;1.00;;;;;;5073354;28;20419;-51
2022/12/30 03:55:36;;;;;;;4.20;0.70;;;5.70;1.00;;;;;;5072417;28;20794;-50
2022/12/30 03:58:01;;;;;;;3.80;0.60;;;5.80;1.00;;;;;;5072595;28;20384;-50
2022/12/30 04:00:27;;;;;;;5.90;0.70;;;5.80;1.00;;;;;;5072247;28;20881;-52
2022/12/30 04:02:52;;;;;;;6.00;0.70;;;5.90;1.00;;;;;;5073439;28;20387;-52
2022/12/30 04:05:18;;;;;;;5.20;0.93;;;5.90;1.00;;;;;;5072651;28;20773;-57
2022/12/30 04:07:44;;;;;;;4.38;0.75;;;5.90;1.00;;;;;;5072639;28;20748;-53
2022/12/30 04:10:09;;;;;;;3.60;0.50;;;5.90;1.00;;;;;;5072972;28;20387;-52
2022/12/30 04:12:35;;;;;;;3.70;0.60;;;5.80;1.00;;;;;;5072223;28;20368;-52
2022/12/30 04:15:01;;;;;;;4.90;0.90;;;5.90;1.00;;;;;;5072239;28;20895;-52
2022/12/30 04:17:26;;;;;;;4.47;0.90;;;5.90;1.00;;;;;;5072224;28;20437;-53
2022/12/30 04:19:52;;;;;;;5.30;0.70;;;5.90;1.00;;;;;;5072786;28;20414;-52
2022/12/30 04:22:18;;;;;;;5.47;0.60;;;5.90;1.00;;;;;;5072461;28;20503;-52
2022/12/30 04:24:43;;;;;;;4.10;0.60;;;5.90;1.00;;;;;;5072343;28;20473;-52
2022/12/30 04:27:09;;;;;;;3.60;0.60;;;7.50;1.00;;;;;;5072590;28;20392;-52
2022/12/30 04:29:34;;;;;;;3.70;0.50;;;7.90;1.00;;;;;;5071872;28;20383;-52
2022/12/30 04:32:00;;;;;;;5.60;0.70;;;5.90;1.00;;;;;;5072137;28;20885;-50
2022/12/30 04:34:25;;;;;;;3.50;0.40;;;6.30;1.00;;;;;;5071424;28;20402;-50
2022/12/30 04:36:51;;;;;;;5.77;0.80;;;6.10;1.00;;;;;;5072080;28;20388;-51
2022/12/30 04:39:17;;;;;;;3.90;0.60;;;6.10;1.00;;;;;;5072650;28;20407;-52
2022/12/30 04:41:42;;;;;;;4.10;0.50;;;6.10;1.00;;;;;;5071126;28;21226;-52
2022/12/30 04:44:08;;;;;;;4.63;0.60;;;6.10;1.00;;;;;;5072046;28;20761;-52
2022/12/30 04:46:33;;;;;;;7.37;0.60;;;6.00;1.00;;;;;;5070064;28;20503;-53
2022/12/30 04:48:59;;;;;;;3.60;0.50;;;6.00;1.00;;;;;;5071978;28;20399;-52
2022/12/30 04:51:25;;;;;;;4.60;0.60;;;7.20;1.00;;;;;;5071438;28;20427;-52
2022/12/30 04:53:51;;;;;;;4.07;0.50;;;6.70;1.00;;;;;;5072383;28;20380;-51
2022/12/30 04:56:17;;;;;;;3.70;0.50;;;5.80;1.00;;;;;;5071983;28;20920;-52
2022/12/30 04:58:43;;;;;;;6.23;0.70;;;5.60;1.00;;;;;;5069883;28;21025;-54
2022/12/30 05:01:09;;;;;;;4.47;0.93;;;5.50;1.00;;;;;;5071837;28;20422;-51
2022/12/30 05:03:35;;;;;;;3.90;0.70;;;6.10;1.00;;;;;;5071109;28;20436;-51
2022/12/30 05:06:01;;;;;;;4.57;0.90;;;5.40;1.00;;;;;;5072351;28;20813;-51
2022/12/30 05:08:26;;;;;;;5.30;0.70;;;6.30;1.00;;;;;;5071298;28;20745;-52
2022/12/30 05:10:52;;;;;;;3.70;0.50;;;5.30;1.00;;;;;;5071900;28;20395;-51
2022/12/30 05:13:18;;;;;;;5.25;0.60;;;5.30;1.00;;;;;;5072077;28;20771;-52
2022/12/30 05:15:43;;;;;;;4.07;0.60;;;5.70;1.00;;;;;;5071025;28;20760;-51
2022/12/30 05:18:10;;;;;;;4.40;0.70;;;5.20;1.00;;;;;;5071823;28;20394;-51
2022/12/30 05:20:36;;;;;;;5.60;0.63;;;5.20;1.00;;;;;;5070996;28;20408;-51
2022/12/30 05:23:02;;;;;;;6.90;0.60;;;6.20;1.00;;;;;;5071944;28;20845;-53
2022/12/30 05:28:12;;;;;;;4.63;0.60;;;6.40;1.00;;;;;;5071353;28;20402;-51
2022/12/30 05:30:37;;;;;;;4.23;0.60;;;5.10;1.00;;;;;;5066825;28;20396;-52
2022/12/30 05:33:03;;;;;;;3.80;0.60;;;5.00;1.00;;;;;;5060120;28;20747;-51
2022/12/30 05:35:29;;;;;;;4.77;0.50;;;5.00;1.00;;;;;;5050435;28;20406;-51
2022/12/30 05:37:54;;;;;;;4.90;0.50;;;5.10;1.00;;;;;;5061144;28;20396;-51
2022/12/30 05:40:20;;;;;;;5.60;0.53;;;5.10;1.00;;;;;;5071315;28;20873;-55
2022/12/30 05:42:46;;;;;;;3.77;0.40;;;5.20;1.00;;;;;;5070407;28;20391;-51
2022/12/30 05:45:12;;;;;;;3.83;0.50;;;5.20;1.00;;;;;;5071300;28;20784;-51
2022/12/30 05:47:38;;;;;;;3.60;0.40;;;5.20;1.00;;;;;;5070217;28;20489;-50
2022/12/30 05:50:04;;;;;;;3.53;0.53;;;5.20;1.00;;;;;;5071109;28;20470;-51
2022/12/30 05:52:30;;;;;;;4.00;0.40;;;5.30;1.00;;;;;;5070221;28;20391;-51
2022/12/30 05:54:56;;;;;;;3.40;0.45;;;5.30;1.00;;;;;;5070888;28;20371;-51
2022/12/30 05:57:22;;;;;;;3.70;0.50;;;5.30;1.00;;;;;;5070284;28;20391;-57
2022/12/30 05:59:47;;;;;;;3.60;0.50;;;5.30;1.00;;;;;;5070790;28;20812;-51
2022/12/30 06:02:13;;;;;;;5.10;0.60;;;6.30;1.00;;;;;;5070264;28;20452;-51
2022/12/30 06:04:38;;;;;;;3.43;0.40;;;5.40;1.00;;;;;;5069617;28;20833;-51
2022/12/30 06:07:04;;;;;;;4.18;0.50;;;5.40;1.00;;;;;;5070560;28;20400;-51
2022/12/30 06:09:30;;;;;;;5.80;0.50;;;5.40;1.00;;;;;;5069682;28;20372;-51
2022/12/30 06:11:55;;;;;;;3.63;0.50;;;5.40;1.00;;;;;;5070562;28;20419;-51
2022/12/30 06:14:22;;;;;;;4.20;0.50;;;5.30;1.00;;;;;;5069564;28;20380;-51
2022/12/30 06:16:47;;;;;;;3.50;0.43;;;5.40;1.00;;;;;;5069922;28;20423;-51
2022/12/30 06:19:13;;;;;;;3.90;0.50;;;6.30;1.00;;;;;;5070309;28;20829;-51
2022/12/30 06:21:45;;;;;;;4.10;0.50;;;5.60;1.00;;;;;;5069151;28;20652;-51
2022/12/30 06:24:10;;;;;;;4.07;0.70;;;5.30;1.00;;;;;;5070059;28;20425;-53
2022/12/30 06:26:36;;;;;;;4.23;0.70;;;5.20;1.00;;;;;;5069510;28;20380;-51
2022/12/30 06:29:02;;;;;;;3.90;0.70;;;5.20;1.00;;;;;;5070059;28;20380;-51
2022/12/30 06:31:27;;;;;;;4.90;0.80;;;5.30;1.00;;;;;;5069607;28;20388;-51
2022/12/30 06:33:53;;;;;;;3.87;0.60;;;5.30;1.00;;;;;;5068841;28;20472;-51
2022/12/30 06:36:18;;;;;;;4.00;0.80;;;5.30;1.00;;;;;;5069988;28;20479;-51
2022/12/30 06:38:44;;;;;;;4.00;0.80;;;5.20;1.00;;;;;;5069327;28;20372;-51
2022/12/30 06:41:10;;;;;;;4.30;0.70;;;6.10;1.00;;;;;;5068404;28;20420;-52
2022/12/30 06:43:35;;;;;;;4.30;0.90;;;5.40;1.00;;;;;;5069034;28;20395;-51
2022/12/30 06:46:01;;;;;;;4.50;0.80;;;6.50;1.00;;;;;;5070404;28;20421;-51
2022/12/30 06:48:26;;;;;;;4.07;0.57;;;7.00;1.00;;;;;;5069423;28;20718;-53
2022/12/30 06:51:02;;;;;;;3.90;0.70;;;5.60;1.00;;;;;;5068469;28;20878;-52
2022/12/30 06:53:28;;;;;;;4.00;0.50;;;5.10;1.00;;;;;;5060721;28;20488;-51
2022/12/30 06:55:54;;;;;;;3.90;0.60;;;5.20;1.00;;;;;;5068886;28;20852;-53
2022/12/30 06:58:20;;;;;;;4.00;0.93;;;5.60;1.00;;;;;;5068166;28;20897;-51
2022/12/30 07:00:45;;;;;;;7.53;1.00;;;5.40;1.00;;;;;;5068207;28;20414;-52
2022/12/30 07:03:11;;;;;;;4.20;1.00;;;6.60;1.00;;;;;;5068130;28;20410;-52
2022/12/30 07:05:37;;;;;;;4.30;0.95;;;5.30;1.00;;;;;;5060206;28;20403;-52
2022/12/30 07:08:03;;;;;;;6.30;1.20;;;5.10;1.00;;;;;;5069860;28;20398;-51
2022/12/30 07:10:28;;;;;;;5.57;1.00;;;5.00;99.90;;;;;;5068825;28;20383;-52
2022/12/30 07:12:54;;;;;;;5.07;1.10;;;4.90;1.00;;;;;;5068886;28;20449;-51
2022/12/30 07:15:20;;;;;;;5.85;1.20;;;6.90;99.90;;;;;;5067740;28;20453;-51
2022/12/30 07:17:46;;;;;;;6.43;1.50;;;5.10;1.00;;;;;;5077165;28;20411;-51
2022/12/30 07:20:15;;;;;;;9.40;2.22;;;6.20;1.00;;;;;;5077767;28;20899;-56
2022/12/30 07:22:41;;;;;;;11.45;4.55;;;6.00;1.00;;;;;;5076582;28;20404;-52
2022/12/30 07:25:07;;;;;;;24.42;8.07;;;5.60;1.00;;;;;;5075981;28;20390;-52
2022/12/30 07:27:33;;;;;;;9.65;4.32;;;4.70;1.00;;;;;;5064245;28;20414;-53
2022/12/30 07:29:59;;;;;;;10.75;3.80;;;5.80;99.90;;;;;;5066789;28;20391;-50
2022/12/30 07:32:24;;;;;;;10.13;2.70;;;4.90;99.90;;;;;;5068920;28;20404;-56
2022/12/30 07:34:50;;;;;;;10.15;4.25;;;5.00;99.90;;;;;;5059935;28;20426;-51
2022/12/30 07:37:15;;;;;;;6.20;2.50;;;5.00;99.90;;;;;;5066077;28;20761;-51
2022/12/30 07:39:41;;;;;;;6.75;2.55;;;5.10;99.90;;;;;;5067626;28;20409;-51
2022/12/30 07:42:06;;;;;;;6.17;2.30;;;6.70;99.90;;;;;;5066908;28;20391;-51
2022/12/30 07:44:32;;;;;;;8.60;3.27;;;5.10;99.90;;;;;;5065788;28;20382;-56
2022/12/30 07:46:58;;;;;;;7.43;2.00;;;5.10;99.90;;;;;;5069786;28;20512;-54
2022/12/30 07:49:23;;;;;;;8.80;3.73;;;5.20;1.00;;;;;;5071063;28;20394;-57
2022/12/30 07:51:49;;;;;;;10.07;3.17;;;5.30;1.00;;;;;;5070591;28;20430;-52
2022/12/30 07:54:14;;;;;;;9.20;4.13;;;6.90;1.00;;;;;;5070063;28;20437;-52
2022/12/30 07:56:40;;;;;;;18.83;7.65;;;5.50;99.90;;;;;;5068830;28;20900;-53
2022/12/30 07:59:05;;;;;;;13.67;6.00;;;5.50;1.00;;;;;;5070032;28;20380;-53
2022/12/30 08:01:31;;;;;;;9.73;4.40;;;5.50;1.00;;;;;;5077922;28;20738;-52
2022/12/30 08:03:57;;;;;;;6.97;2.30;;;5.60;1.00;;;;;;5068950;28;20416;-51
2022/12/30 08:06:22;;;;;;;5.30;1.75;;;5.50;1.00;;;;;;5067818;28;20497;-51
2022/12/30 08:08:48;;;;;;;6.50;1.20;;;5.50;1.00;;;;;;5070581;28;20392;-51
2022/12/30 08:11:15;;;;;;;5.68;1.60;;;5.50;99.90;;;;;;5085709;28;20459;-51
2022/12/30 08:13:42;;;;;;;5.00;1.35;;;5.40;1.00;;;;;;5072771;28;20386;-51
2022/12/30 08:16:11;;;;;;;4.30;1.25;;;5.40;1.00;;;;;;5069248;28;20479;-51
2022/12/30 08:18:37;;;;;;;5.20;1.35;;;5.50;1.00;;;;;;5060555;28;20745;-51
2022/12/30 08:21:05;;;;;;;5.40;1.40;;;5.60;1.00;;;;;;5065562;28;20915;-51
2022/12/30 08:23:32;;;;;;;6.35;1.77;;;5.70;1.00;;;;;;5068997;28;20393;-51
2022/12/30 08:26:10;;;;;;;5.90;2.00;;;5.80;1.00;;;;;;5064468;28;20529;-52
2022/12/30 08:28:36;;;;;;;5.15;1.73;;;6.00;1.00;;;;;;5064020;28;20399;-50
2022/12/30 08:31:06;;;;;;;5.30;1.77;;;6.10;1.00;;;;;;5067655;28;20402;-52
2022/12/30 08:33:31;;;;;;;5.40;1.80;;;6.20;99.90;;;;;;5066746;28;20739;-51
2022/12/30 08:36:06;;;;;;;4.70;1.60;;;6.30;99.90;;;;;;5069927;28;20484;-51
2022/12/30 08:38:34;;;;;;;5.13;2.00;;;6.40;99.90;;;;;;5066414;28;20477;-51
2022/12/30 08:41:18;;;;;;;6.20;2.10;;;6.60;99.90;;;;;;5077789;28;20412;-51
2022/12/30 08:43:44;;;;;;;8.18;2.10;;;6.80;99.90;;;;;;5075196;28;20402;-51
2022/12/30 08:46:10;;;;;;;6.50;2.30;;;6.90;36.20;;;;;;5088442;28;20418;-51
2022/12/30 08:48:35;;;;;;;6.28;2.15;;;8.10;1.00;;;;;;5079297;28;20384;-51
2022/12/30 08:51:01;;;;;;;5.53;1.90;;;6.90;99.90;;;;;;5080593;28;20407;-51
2022/12/30 08:53:28;;;;;;;5.70;2.00;;;6.90;1.00;;;;;;5074598;28;20403;-56
2022/12/30 08:56:05;;;;;;;7.60;1.90;;;7.10;1.00;;;;;;5072422;28;20458;-52
2022/12/30 08:58:32;;;;;;;6.00;1.98;;;7.30;1.00;;;;;;5073220;28;20380;-53
2022/12/30 09:00:58;;;;;;;7.50;2.10;;;7.50;99.90;;;;;;5075742;28;20403;-53
2022/12/30 09:03:24;;;;;;;7.35;1.85;;;7.60;1.00;;;;;;5075298;28;20391;-54
2022/12/30 09:05:51;;;;;;;6.73;2.20;;;8.00;1.00;;;;;;5070193;28;20399;-51
2022/12/30 09:08:17;;;;;;;6.30;1.92;;;8.60;99.70;;;;;;5070322;28;21082;-55
2022/12/30 09:10:43;;;;;;;7.90;2.20;;;9.40;1.00;;;;;;5070223;28;20392;-51
2022/12/30 09:13:08;;;;;;;6.35;1.90;;;10.50;99.90;;;;;;5067859;28;20860;-51
2022/12/30 09:15:34;;;;;;;5.83;1.33;;;11.80;99.90;;;;;;5069805;28;20399;-53
2022/12/30 09:17:59;;;;;;;5.28;1.30;;;12.50;1.00;;;;;;5070825;28;20388;-52
2022/12/30 09:20:25;;;;;;;5.70;1.40;;;13.30;1.00;;;;;;5070650;28;20908;-57
2022/12/30 09:22:51;;;;;;;5.20;1.50;;;13.80;1.00;;;;;;5058417;28;20395;-53
2022/12/30 09:25:17;;;;;;;5.90;1.40;;;13.80;1.00;;;;;;5071290;28;20383;-52
2022/12/30 09:27:42;;;;;;;6.10;1.37;;;13.40;1.00;;;;;;5052622;28;20400;-51
2022/12/30 09:30:08;;;;;;;6.47;1.60;;;13.20;1.00;;;;;;5071666;28;20379;-52
2022/12/30 09:32:34;;;;;;;7.47;1.40;;;13.50;1.00;;;;;;5070328;28;20383;-53
2022/12/30 09:34:59;;;;;;;5.78;1.58;;;13.90;1.00;;;;;;5071148;28;20411;-52
2022/12/30 09:37:25;;;;;;;5.00;1.20;;;14.40;1.00;;;;;;5069202;28;20756;-57
2022/12/30 09:39:51;;;;;;;6.00;1.48;;;14.40;1.00;;;;;;5067211;28;20465;-53
2022/12/30 09:45:02;;;;;;;6.20;1.20;;;13.70;1.00;;;;;;5072354;28;20434;-52
2022/12/30 09:47:48;;;;;;;5.18;1.25;;;13.80;1.00;;;;;;5060138;28;20434;-56
2022/12/30 09:50:42;;;;;;;5.55;1.25;;;13.70;1.00;;;;;;5060996;28;20444;-52
2022/12/30 09:53:16;;;;;;;6.38;1.70;;;13.90;1.00;;;;;;5057737;28;20825;-53
2022/12/30 09:55:56;;;;;;;6.40;1.20;;;14.50;1.00;;;;;;5070468;28;20375;-52
2022/12/30 09:58:29;;;;;;;5.10;1.15;;;15.10;1.00;;;;;;5071038;28;20379;-52
2022/12/30 10:01:03;;;;;;;7.40;1.65;;;15.40;1.00;;;;;;5071026;28;20490;-51
2022/12/30 10:03:29;;;;;;;6.70;1.90;;;15.50;1.00;;;;;;5064020;28;20876;-57
2022/12/30 10:05:58;;;;;;;6.47;1.60;;;15.60;1.00;;;;;;5053264;28;20397;-52
2022/12/30 10:08:53;;;;;;;5.60;1.90;;;15.60;1.00;;;;;;5050577;28;20735;-52
2022/12/30 10:11:52;;;;;;;5.40;1.60;;;15.60;1.00;;;;;;5052459;28;20392;-52
2022/12/30 10:14:42;;;;;;;6.13;1.65;;;15.70;1.00;;;;;;5070305;28;20884;-52
2022/12/30 10:17:22;;;;;;;7.13;1.80;;;15.80;1.00;;;;;;5053324;28;20397;-59
2022/12/30 10:20:02;;;;;;;7.28;1.60;;;15.90;1.00;;;;;;5044711;28;20980;-59
2022/12/30 10:22:43;;;;;;;5.35;1.33;;;16.10;1.00;;;;;;5067649;28;20407;-62
2022/12/30 10:25:22;;;;;;;6.30;1.50;;;16.20;1.00;;;;;;5044357;28;20403;-59
2022/12/30 10:27:50;;;;;;;5.95;1.20;;;15.80;1.00;;;;;;5069238;28;20430;-57
2022/12/30 10:30:21;;;;;;;4.57;0.82;;;15.60;1.00;;;;;;5069928;28;20379;-58
2022/12/30 10:32:56;;;;;;;5.18;1.10;;;15.40;1.00;;;;;;5063274;28;20406;-57
2022/12/30 10:35:24;;;;;;;5.20;0.70;;;15.30;1.00;;;;;;5061003;28;20458;-57
2022/12/30 10:38:01;;;;;;;5.57;0.70;;;15.60;1.00;;;;;;5053037;28;20377;-57
2022/12/30 10:40:41;;;;;;;4.88;0.88;;;15.30;1.00;;;;;;5050013;28;20409;-62
2022/12/30 10:43:45;;;;;;;4.80;0.73;;;15.40;1.00;;;;;;5056154;28;20376;-57
2022/12/30 10:46:35;;;;;;;5.13;0.70;;;15.10;1.00;;;;;;5069905;28;20719;-58
2022/12/30 10:49:21;;;;;;;4.45;0.60;;;14.90;1.00;;;;;;5069925;28;20440;-57
2022/12/30 10:51:49;;;;;;;7.03;0.70;;;15.00;1.00;;;;;;5073663;28;20386;-58
2022/12/30 10:54:14;;;;;;;4.70;0.80;;;14.90;1.00;;;;;;5089688;28;20893;-58
2022/12/30 10:56:41;;;;;;;4.53;0.80;;;14.70;1.00;;;;;;5087794;28;20410;-58
2022/12/30 10:59:14;;;;;;;5.07;0.88;;;14.80;1.00;;;;;;5070319;28;20384;-60
2022/12/30 11:01:42;;;;;;;4.90;0.80;;;14.60;1.00;;;;;;5069327;28;20463;-58
2022/12/30 11:04:45;;;;;;;4.82;0.70;;;14.60;1.00;;;;;;5069762;28;20390;-57
2022/12/30 11:07:14;;;;;;;4.60;0.60;;;14.80;1.00;;;;;;5070474;28;20896;-58
2022/12/30 11:09:39;;;;;;;4.53;0.70;;;14.80;1.00;;;;;;5031019;28;20401;-57
2022/12/30 11:15:08;;;;;;;4.50;0.60;;;14.70;1.00;;;;;;5051752;28;20387;-58
2022/12/30 11:17:40;;;;;;;4.50;0.70;;;14.40;1.00;;;;;;5062333;28;20434;-58
2022/12/30 11:20:22;;;;;;;4.97;0.80;;;14.50;1.00;;;;;;5068951;28;20492;-57
2022/12/30 11:22:53;;;;;;;5.00;0.70;;;14.80;1.00;;;;;;5068459;28;20427;-58
2022/12/30 11:25:27;;;;;;;5.40;0.50;;;14.40;1.00;;;;;;5069209;28;20467;-58
2022/12/30 11:27:58;;;;;;;4.60;0.60;;;14.10;1.00;;;;;;5065710;28;20391;-58
2022/12/30 11:30:36;;;;;;;4.43;0.60;;;13.50;1.00;;;;;;5063617;28;20407;-58
2022/12/30 11:33:04;;;;;;;4.50;0.60;;;12.70;1.00;;;;;;5069145;28;20386;-58
2022/12/30 11:35:39;;;;;;;4.80;0.65;;;12.40;1.00;;;;;;5068170;28;20407;-56
2022/12/30 11:38:30;;;;;;;4.50;0.43;;;12.00;1.00;;;;;;5066818;28;20749;-51
2022/12/30 11:40:56;;;;;;;5.70;0.57;;;12.10;1.00;;;;;;5068638;28;20460;-51
2022/12/30 11:43:23;;;;;;;4.40;0.50;;;12.10;1.00;;;;;;5068842;28;20404;-51
2022/12/30 11:46:01;;;;;;;4.50;0.60;;;12.20;1.00;;;;;;5068015;28;21028;-51
2022/12/30 11:48:31;;;;;;;4.80;0.80;;;11.90;1.00;;;;;;5069221;28;20863;-57
2022/12/30 11:50:59;;;;;;;4.28;0.52;;;12.00;1.00;;;;;;5069349;28;20392;-51
2022/12/30 11:53:29;;;;;;;4.25;0.50;;;12.00;1.00;;;;;;5069362;28;20405;-51
2022/12/30 11:55:55;;;;;;;4.53;0.50;;;11.80;1.00;;;;;;5068855;28;20384;-51
2022/12/30 11:58:21;;;;;;;4.20;0.50;;;11.70;1.00;;;;;;5069245;28;20431;-51
2022/12/30 12:00:57;;;;;;;4.40;0.57;;;11.70;1.00;;;;;;5068289;28;20626;-51
2022/12/30 12:03:24;;;;;;;5.07;0.85;;;11.80;1.00;;;;;;5069090;28;20445;-51
2022/12/30 12:06:04;;;;;;;5.60;0.70;;;11.80;1.00;;;;;;5068068;28;20403;-51
2022/12/30 12:08:41;;;;;;;5.95;0.75;;;12.00;1.00;;;;;;5068715;28;20426;-56
2022/12/30 12:11:20;;;;;;;5.43;0.98;;;11.90;1.00;;;;;;5069195;28;20376;-51
2022/12/30 12:13:52;;;;;;;5.18;0.80;;;11.80;1.00;;;;;;5071204;28;20383;-51
2022/12/30 12:16:34;;;;;;;6.40;0.80;;;11.80;1.00;;;;;;5072886;28;20392;-51
2022/12/30 12:19:11;;;;;;;4.68;0.70;;;11.60;1.00;;;;;;5072907;28;20445;-51
2022/12/30 12:21:40;;;;;;;4.70;0.60;;;11.40;1.00;;;;;;5072131;28;20392;-51
2022/12/30 12:24:32;;;;;;;4.30;0.60;;;11.40;1.00;;;;;;5072793;28;20380;-52
2022/12/30 12:27:21;;;;;;;5.15;0.77;;;11.20;1.00;;;;;;5072514;28;20861;-51
2022/12/30 12:29:59;;;;;;;4.90;0.90;;;11.00;1.00;;;;;;5071568;28;20816;-51
2022/12/30 12:32:36;;;;;;;5.70;0.80;;;10.90;1.00;;;;;;5072710;28;20404;-51
2022/12/30 12:35:19;;;;;;;4.88;0.82;;;10.90;1.00;;;;;;5072197;28;20415;-52
2022/12/30 12:38:21;;;;;;;6.00;0.88;;;10.90;1.00;;;;;;5071872;28;20396;-55
2022/12/30 12:41:05;;;;;;;4.40;0.60;;;10.80;1.00;;;;;;5045998;28;20469;-53
2022/12/30 12:43:46;;;;;;;5.50;0.70;;;10.80;1.00;;;;;;5071887;28;20383;-56
2022/12/30 12:46:42;;;;;;;4.50;0.68;;;10.80;1.00;;;;;;5072423;28;20380;-53
2022/12/30 12:49:38;;;;;;;4.25;0.60;;;10.80;1.00;;;;;;5072007;28;20501;-53
2022/12/30 12:52:07;;;;;;;4.30;0.70;;;11.00;1.00;;;;;;5072431;28;20383;-51
2022/12/30 12:54:47;;;;;;;5.07;0.70;;;11.00;1.00;;;;;;5071394;28;20430;-55
2022/12/30 12:57:28;;;;;;;5.80;0.83;;;11.10;1.00;;;;;;5072035;28;20379;-50
2022/12/30 13:00:13;;;;;;;4.55;0.90;;;10.90;1.00;;;;;;5071297;28;20418;-50
2022/12/30 13:03:00;;;;;;;4.40;0.80;;;11.10;1.00;;;;;;5071372;28;20392;-50
2022/12/30 13:05:36;;;;;;;5.15;0.70;;;11.00;1.00;;;;;;5072251;28;20442;-50
2022/12/30 13:08:24;;;;;;;5.60;0.77;;;10.80;1.00;;;;;;5071712;28;20824;-51
2022/12/30 13:10:58;;;;;;;5.93;0.90;;;10.80;1.00;;;;;;5071156;28;20476;-52
2022/12/30 13:13:34;;;;;;;4.73;1.03;;;10.80;1.00;;;;;;5071923;28;20418;-53
2022/12/30 13:16:09;;;;;;;5.50;1.05;;;10.80;1.00;;;;;;5071967;28;20388;-53
2022/12/30 13:18:39;;;;;;;5.03;1.20;;;10.80;1.00;;;;;;5071279;28;20372;-52
2022/12/30 13:21:09;;;;;;;5.63;1.10;;;10.70;1.00;;;;;;5071532;28;20872;-53
2022/12/30 13:23:46;;;;;;;5.82;1.10;;;10.70;1.00;;;;;;5052641;28;20824;-52
2022/12/30 13:26:12;;;;;;;4.95;1.15;;;10.70;1.00;;;;;;5071389;28;20477;-55
2022/12/30 13:28:38;;;;;;;5.30;1.00;;;10.80;1.00;;;;;;5070677;28;20809;-50
2022/12/30 13:31:49;;;;;;;5.57;1.33;;;10.70;1.00;;;;;;5071414;28;20383;-50
2022/12/30 13:34:44;;;;;;;5.03;1.30;;;10.70;1.00;;;;;;5065865;28;20400;-54
2022/12/30 13:37:16;;;;;;;5.53;1.40;;;10.80;1.00;;;;;;5056087;28;20402;-53
2022/12/30 13:39:52;;;;;;;5.60;1.50;;;10.90;1.00;;;;;;5066356;28;20418;-50
2022/12/30 13:42:33;;;;;;;6.90;1.35;;;10.80;1.00;;;;;;5070951;28;20765;-49
2022/12/30 13:45:00;;;;;;;5.68;1.50;;;10.70;1.00;;;;;;5070514;28;20457;-50
2022/12/30 13:47:33;;;;;;;5.63;1.20;;;10.70;1.00;;;;;;5055732;28;20863;-52
2022/12/30 13:50:01;;;;;;;4.70;1.10;;;10.70;1.00;;;;;;5041457;28;20533;-50
2022/12/30 13:52:28;;;;;;;5.68;1.55;;;10.60;1.00;;;;;;5070645;28;20387;-52
2022/12/30 13:54:58;;;;;;;6.30;1.33;;;10.70;1.00;;;;;;5070001;28;20380;-50
2022/12/30 13:58:11;;;;;;;5.30;1.40;;;10.60;1.00;;;;;;5070863;28;20384;-51
2022/12/30 14:00:38;;;;;;;8.30;1.40;;;10.70;1.00;;;;;;5051985;28;20411;-52
2022/12/30 14:03:13;;;;;;;4.70;1.20;;;10.80;1.00;;;;;;5070355;28;20813;-52
2022/12/30 14:05:38;;;;;;;6.03;1.60;;;10.80;1.00;;;;;;5069429;28;20387;-50
2022/12/30 14:08:25;;;;;;;5.23;1.20;;;10.90;1.00;;;;;;5083287;28;20398;-50
2022/12/30 14:11:00;;;;;;;5.00;1.30;;;10.70;1.00;;;;;;5076745;28;21093;-52
2022/12/30 14:13:30;;;;;;;5.63;1.20;;;10.70;1.00;;;;;;5070255;28;20398;-52
2022/12/30 14:15:59;;;;;;;6.70;2.40;;;10.70;1.00;;;;;;5069881;28;20399;-53
2022/12/30 14:18:45;;;;;;;6.00;1.40;;;10.70;1.00;;;;;;5070409;28;20383;-52